Impacts METAR Board INFO
IDs:

KEWR - Newark Intl, NJ, US

Updated at: 0145 UTC 26 Feb 2018
Potential Impact None Slight Moderate High
Time25/13Z 25/14Z 25/15Z 25/16Z 25/17Z 25/18Z 25/19Z 25/20Z 25/21Z 25/22Z 25/23Z 26/00Z 26/01Z
VIS4 6 8 4 6 7 5 8 8 6 8 8 7
CIG6 9 9 8 6 7 7 7 8 8 8 9 8
CoverOVCOVCOVCOVCOVCOVCOVCOVCOVCOVCOVCOVCOVC
FltCatIFRIFRIFRIFRIFRIFRIFRIFRIFRIFRIFRIFRIFR
WXRA BRRA BR-RARA BR-RA BR-RA-RA BR-----DZ BR------
WDir70806034040501040205050340340
WSpd11 8 8 11 13 7 11 10 7 5 4 4 3
WGst-- -- -- -- -- -- -- -- -- -- -- -- --
Raw hourly METARs
KEWR 251251Z 07011KT 4SM RA BR BKN006 OVC012 06/06 A3011 RMK AO2 SLP195 P0013 T00610056
KEWR 251351Z 08008KT 6SM R04R/6000VP6000FT RA BR SCT006 BKN009 OVC014 06/05 A3007 RMK AO2 SLP180 P0006 T00610050
KEWR 251451Z 06008KT 8SM -RA OVC009 06/05 A3003 RMK AO2 SLP169 P0005 60024 T00610050 58022
KEWR 251551Z 34011KT 4SM RA BR OVC008 06/05 A3003 RMK AO2 SLP169 P0006 T00610050
KEWR 251651Z 04013KT 6SM -RA BR BKN006 OVC010 05/04 A2997 RMK AO2 PRESFR SLP148 P0003 T00500044 $
KEWR 251751Z 05007KT 030V090 7SM -RA BKN007 OVC011 06/06 A2993 RMK AO2 SLP133 P0001 60034 T00610056 10067 20050 58036 $
KEWR 251851Z 01011KT 5SM -RA BR BKN007 OVC011 06/05 A2998 RMK AO2 SLP150 P0000 T00560050 $
KEWR 251951Z 04010KT 8SM BKN007 OVC013 06/05 A2993 RMK AO2 RAE03 SLP135 P0000 T00610050 $
KEWR 252051Z 02007KT 8SM OVC008 06/06 A2999 RMK AO2 SLP154 60000 T00610056 53021 $
KEWR 252151Z 05005KT 6SM -DZ BR OVC008 06/05 A2998 RMK AO2 DZB51 SLP151 P0000 T00610050 $
KEWR 252251Z 05004KT 8SM OVC008 06/05 A2997 RMK AO2 DZE07 SLP148 P0000 T00610050 $
KEWR 252351Z 34004KT 8SM OVC009 06/05 A2999 RMK AO2 SLP154 60000 T00610050 10061 20056 55000 $
KEWR 260051Z 34003KT 7SM OVC008 07/05 A3001 RMK AO2 SLP162 T00670050 $